Time;durP1;ratioP1;P1;durP2;ratioP2;P2;SDS_P1;SDS_P2;PMS_P1;PMS_P2;Temp;Humidity;BMP_temperature;BMP_pressure;BME280_temperature;BME280_humidity;BME280_pressure;Samples;Min_cycle;Max_cycle;Signal;HPM_P1;HPM_P2
2022/07/10 00:02:21;;;;;;;;;;;16.20;99.90;;;;;;5034264;28;20195;-71
2022/07/10 00:04:48;;;;;;;;;;;16.10;99.90;;;;;;5032876;28;20576;-71
2022/07/10 00:07:16;;;;;;;;;;;16.00;99.90;;;;;;5035835;28;20207;-71
2022/07/10 00:09:45;;;;;;;;;;;15.90;99.90;;;;;;5032945;28;20294;-71
2022/07/10 00:12:13;;;;;;;;;;;15.90;99.90;;;;;;5033565;28;20293;-70
2022/07/10 00:14:41;;;;;;;;;;;15.90;99.90;;;;;;5030685;28;20252;-71
2022/07/10 00:17:09;;;;;;;;;;;15.80;99.90;;;;;;5031277;28;20577;-70
2022/07/10 00:19:36;;;;;;;;;;;15.70;99.90;;;;;;5033056;28;20263;-70
2022/07/10 00:22:04;;;;;;;;;;;15.70;99.90;;;;;;5033224;28;20211;-70
2022/07/10 00:24:32;;;;;;;;;;;15.70;99.90;;;;;;5033148;28;20195;-71
2022/07/10 00:27:01;;;;;;;;;;;15.70;99.90;;;;;;5035531;28;20229;-70
2022/07/10 00:29:29;;;;;;;;;;;15.80;99.90;;;;;;5039004;28;20256;-72
2022/07/10 00:31:57;;;;;;;;;;;15.80;99.90;;;;;;5035048;28;20567;-71
2022/07/10 00:34:25;;;;;;;;;;;15.80;99.90;;;;;;5033189;28;20253;-70
2022/07/10 00:36:52;;;;;;;;;;;15.80;99.90;;;;;;5034021;28;20202;-70
2022/07/10 00:39:20;;;;;;;;;;;15.80;99.90;;;;;;5018212;28;20685;-70
2022/07/10 00:41:48;;;;;;;;;;;15.80;99.90;;;;;;5034965;28;20199;-71
2022/07/10 00:44:17;;;;;;;;;;;15.80;99.90;;;;;;5033674;28;20199;-69
2022/07/10 00:46:44;;;;;;;;;;;15.80;99.90;;;;;;5036676;28;20203;-69
2022/07/10 00:49:12;;;;;;;;;;;15.70;99.90;;;;;;5031523;28;20198;-70
2022/07/10 00:51:40;;;;;;;;;;;15.70;99.90;;;;;;5038849;28;20329;-70
2022/07/10 00:54:08;;;;;;;;;;;15.70;99.90;;;;;;5034159;28;20191;-70
2022/07/10 00:56:36;;;;;;;;;;;15.70;99.90;;;;;;5035127;28;20736;-70
2022/07/10 00:59:04;;;;;;;;;;;15.60;99.90;;;;;;5037836;28;20262;-69
2022/07/10 01:01:34;;;;;;;;;;;15.70;99.90;;;;;;5041589;28;20198;-70
2022/07/10 01:04:02;;;;;;;;;;;15.60;99.90;;;;;;5033921;28;20651;-68
2022/07/10 01:06:30;;;;;;;;;;;15.60;99.90;;;;;;5035814;28;20195;-70
2022/07/10 01:08:58;;;;;;;;;;;15.60;99.90;;;;;;5031344;28;20245;-71
2022/07/10 01:11:26;;;;;;;;;;;15.60;99.90;;;;;;5036458;28;20663;-71
2022/07/10 01:13:54;;;;;;;;;;;15.60;99.90;;;;;;5033360;28;20206;-71
2022/07/10 01:16:22;;;;;;;;;;;15.50;99.90;;;;;;5036829;28;20202;-70
2022/07/10 01:18:51;;;;;;;;;;;15.50;99.90;;;;;;5031199;28;20206;-70
2022/07/10 01:21:27;;;;;;;;;;;15.40;99.90;;;;;;5032806;28;20259;-71
2022/07/10 01:23:55;;;;;;;;;;;15.40;99.90;;;;;;5034008;28;20198;-70
2022/07/10 01:26:23;;;;;;;;;;;15.40;99.90;;;;;;5039797;28;20741;-71
2022/07/10 01:28:52;;;;;;;;;;;15.30;99.90;;;;;;5030648;28;20663;-71
2022/07/10 01:31:20;;;;;;;;;;;15.30;99.90;;;;;;5033479;28;20620;-70
2022/07/10 01:33:47;;;;;;;;;;;15.30;99.90;;;;;;5034160;28;20687;-71
2022/07/10 01:36:15;;;;;;;;;;;15.30;99.90;;;;;;5034403;28;20195;-71
2022/07/10 01:38:45;;;;;;;;;;;15.30;99.90;;;;;;5031498;28;20199;-70
2022/07/10 01:41:12;;;;;;;;;;;15.30;99.90;;;;;;5032909;28;20742;-71
2022/07/10 01:43:42;;;;;;;;;;;15.30;99.90;;;;;;5029350;28;20269;-71
2022/07/10 01:46:10;;;;;;;;;;;15.30;99.90;;;;;;5024627;28;20202;-71
2022/07/10 01:48:39;;;;;;;;;;;15.30;99.90;;;;;;5032824;28;20548;-70
2022/07/10 01:51:08;;;;;;;;;;;15.30;99.90;;;;;;5030529;28;20198;-71
2022/07/10 01:53:36;;;;;;;;;;;15.30;99.90;;;;;;5033880;28;20621;-71
2022/07/10 01:56:07;;;;;;;;;;;15.30;99.90;;;;;;5035602;28;20195;-71
2022/07/10 01:58:35;;;;;;;;;;;15.30;99.90;;;;;;5029847;28;20195;-70
2022/07/10 02:01:03;;;;;;;;;;;15.30;99.90;;;;;;5024224;28;20619;-70
2022/07/10 02:06:16;;;;;;;;;;;15.20;99.90;;;;;;5029488;28;20203;-69
2022/07/10 02:08:44;;;;;;;;;;;15.10;99.90;;;;;;5028125;28;20207;-70
2022/07/10 02:11:13;;;;;;;;;;;15.00;99.90;;;;;;5033207;28;20663;-71
2022/07/10 02:13:41;;;;;;;;;;;14.90;99.90;;;;;;5035433;28;20215;-71
2022/07/10 02:16:10;;;;;;;;;;;14.90;99.90;;;;;;5026117;28;20237;-68
2022/07/10 02:18:38;;;;;;;;;;;14.90;99.90;;;;;;5025474;28;20198;-71
2022/07/10 02:21:07;;;;;;;;;;;14.90;99.90;;;;;;5031472;28;20203;-71
2022/07/10 02:23:35;;;;;;;;;;;14.90;99.90;;;;;;5030703;28;20622;-72
2022/07/10 02:26:03;;;;;;;;;;;14.90;99.90;;;;;;5031789;28;20213;-72
2022/07/10 02:28:32;;;;;;;;;;;14.80;99.90;;;;;;5026207;28;20280;-71
2022/07/10 02:31:00;;;;;;;;;;;14.80;99.90;;;;;;5032803;28;20203;-71
2022/07/10 02:33:27;;;;;;;;;;;14.70;99.90;;;;;;5031355;28;20191;-72
2022/07/10 02:35:55;;;;;;;;;;;14.70;99.90;;;;;;5035078;28;20191;-71
2022/07/10 02:38:23;;;;;;;;;;;14.70;99.90;;;;;;5030224;28;20335;-71
2022/07/10 02:40:51;;;;;;;;;;;14.70;99.90;;;;;;5036377;28;20206;-71
2022/07/10 02:43:18;;;;;;;;;;;14.70;99.90;;;;;;5030927;28;20203;-71
2022/07/10 02:45:47;;;;;;;;;;;14.70;99.90;;;;;;5029639;28;20199;-70
2022/07/10 02:48:15;;;;;;;;;;;14.70;99.90;;;;;;5028331;28;20691;-70
2022/07/10 02:50:43;;;;;;;;;;;14.80;99.90;;;;;;5038978;28;20202;-71
2022/07/10 02:53:11;;;;;;;;;;;14.80;99.90;;;;;;5033027;28;20203;-70
2022/07/10 02:55:39;;;;;;;;;;;14.90;99.90;;;;;;5030109;28;20191;-71
2022/07/10 02:58:06;;;;;;;;;;;14.90;99.90;;;;;;5034693;28;20621;-68
2022/07/10 03:00:34;;;;;;;;;;;14.90;99.90;;;;;;5030349;28;20329;-71
2022/07/10 03:03:03;;;;;;;;;;;14.90;99.90;;;;;;5029703;28;20214;-71
2022/07/10 03:05:31;;;;;;;;;;;14.80;99.90;;;;;;5030466;28;20187;-71
2022/07/10 03:07:59;;;;;;;;;;;14.80;99.90;;;;;;5031516;28;20230;-70
2022/07/10 03:10:27;;;;;;;;;;;14.80;99.90;;;;;;5031032;28;20404;-71
2022/07/10 03:12:54;;;;;;;;;;;14.80;99.90;;;;;;5035099;28;20256;-71
2022/07/10 03:15:22;;;;;;;;;;;14.70;99.90;;;;;;5031361;28;20206;-69
2022/07/10 03:17:50;;;;;;;;;;;14.60;99.90;;;;;;5029806;28;20202;-69
2022/07/10 03:20:19;;;;;;;;;;;14.50;99.90;;;;;;5027995;28;20223;-69
2022/07/10 03:22:47;;;;;;;;;;;14.40;99.90;;;;;;5030989;28;20207;-70
2022/07/10 03:25:15;;;;;;;;;;;14.30;99.90;;;;;;5033457;28;20211;-71
2022/07/10 03:27:43;;;;;;;;;;;14.20;99.90;;;;;;5033870;28;20264;-70
2022/07/10 03:30:11;;;;;;;;;;;14.30;99.90;;;;;;5035673;28;20195;-71
2022/07/10 03:32:38;;;;;;;;;;;14.20;99.90;;;;;;5032981;28;20195;-71
2022/07/10 03:35:07;;;;;;;;;;;14.20;99.90;;;;;;5029088;28;20220;-70
2022/07/10 03:37:36;;;;;;;;;;;14.20;99.90;;;;;;5027980;28;20268;-70
2022/07/10 03:40:04;;;;;;;;;;;14.10;99.90;;;;;;5030881;28;20667;-69
2022/07/10 03:42:31;;;;;;;;;;;14.10;99.90;;;;;;5030176;28;20199;-71
2022/07/10 03:44:59;;;;;;;;;;;14.10;99.90;;;;;;5031881;28;20199;-71
2022/07/10 03:47:27;;;;;;;;;;;14.10;99.90;;;;;;5027650;28;20291;-71
2022/07/10 03:49:55;;;;;;;;;;;14.10;99.90;;;;;;5031289;28;20273;-70
2022/07/10 03:52:22;;;;;;;;;;;14.10;99.90;;;;;;5023798;28;20210;-69
2022/07/10 03:54:54;;;;;;;;;;;14.10;99.90;;;;;;5025694;28;20761;-69
2022/07/10 04:00:08;;;;;;;;;;;14.10;99.90;;;;;;5025650;28;20211;-69
2022/07/10 04:02:35;;;;;;;;;;;14.20;99.90;;;;;;5026201;28;20206;-69
2022/07/10 04:05:06;;;;;;;;;;;14.20;99.90;;;;;;5030248;28;20618;-70
2022/07/10 04:07:33;;;;;;;;;;;14.30;99.90;;;;;;5035049;28;20233;-71
2022/07/10 04:10:03;;;;;;;;;;;14.20;99.90;;;;;;5027629;28;20199;-70
2022/07/10 04:12:32;;;;;;;;;;;14.10;99.90;;;;;;5029744;28;20259;-71
2022/07/10 04:15:00;;;;;;;;;;;14.10;99.90;;;;;;5026388;28;20207;-71
2022/07/10 04:17:29;;;;;;;;;;;14.10;99.90;;;;;;5027886;28;20244;-71
2022/07/10 04:19:56;;;;;;;;;;;14.00;99.90;;;;;;5031777;28;20195;-70
2022/07/10 04:22:24;;;;;;;;;;;14.00;99.90;;;;;;5030400;28;20233;-71
2022/07/10 04:24:52;;;;;;;;;;;14.00;99.90;;;;;;5026306;28;20644;-70
2022/07/10 04:27:21;;;;;;;;;;;14.00;99.90;;;;;;5031619;28;20250;-69
2022/07/10 04:29:49;;;;;;;;;;;14.00;99.90;;;;;;5029762;28;20245;-69
2022/07/10 04:32:17;;;;;;;;;;;14.00;99.90;;;;;;5025755;28;20261;-70
2022/07/10 04:34:45;;;;;;;;;;;14.00;99.90;;;;;;5033494;28;20195;-69
2022/07/10 04:37:12;;;;;;;;;;;14.00;99.90;;;;;;5025711;28;20191;-70
2022/07/10 04:39:40;;;;;;;;;;;14.00;99.90;;;;;;5028320;28;20541;-69
2022/07/10 04:42:08;;;;;;;;;;;14.00;99.90;;;;;;5030077;28;20215;-71
2022/07/10 04:44:38;;;;;;;;;;;14.10;99.90;;;;;;5028823;28;20265;-69
2022/07/10 04:47:06;;;;;;;;;;;14.10;99.90;;;;;;5030124;28;20202;-71
2022/07/10 04:49:34;;;;;;;;;;;14.10;99.90;;;;;;5023096;28;20213;-70
2022/07/10 04:52:02;;;;;;;;;;;14.20;99.90;;;;;;5024730;28;20558;-70
2022/07/10 04:54:30;;;;;;;;;;;14.20;99.90;;;;;;5023941;28;20606;-70
2022/07/10 04:56:58;;;;;;;;;;;14.30;99.90;;;;;;5021943;28;20656;-70
2022/07/10 04:59:25;;;;;;;;;;;14.40;99.90;;;;;;5028390;28;20226;-71
2022/07/10 05:01:55;;;;;;;;;;;14.40;99.90;;;;;;5028773;28;20260;-72
2022/07/10 05:04:22;;;;;;;;;;;14.50;99.90;;;;;;5021005;28;20200;-70
2022/07/10 05:06:50;;;;;;;;;;;14.50;99.90;;;;;;5028833;28;20199;-70
2022/07/10 05:09:19;;;;;;;;;;;14.50;99.90;;;;;;5029211;28;20652;-70
2022/07/10 05:11:47;;;;;;;;;;;14.60;99.90;;;;;;5026974;28;20750;-69
2022/07/10 05:14:16;;;;;;;;;;;14.60;99.90;;;;;;5024969;28;20264;-70
2022/07/10 05:16:43;;;;;;;;;;;14.60;99.90;;;;;;5031294;28;20187;-70
2022/07/10 05:19:13;;;;;;;;;;;14.60;99.90;;;;;;5025814;28;20203;-68
2022/07/10 05:21:40;;;;;;;;;;;14.50;99.90;;;;;;5026461;28;20211;-71
2022/07/10 05:24:08;;;;;;;;;;;14.50;99.90;;;;;;5027940;28;20229;-70
2022/07/10 05:26:36;;;;;;;;;;;14.60;99.90;;;;;;5025008;28;20676;-71
2022/07/10 05:29:04;;;;;;;;;;;14.70;99.90;;;;;;5029999;28;20191;-71
2022/07/10 05:31:32;;;;;;;;;;;14.70;99.90;;;;;;5029423;28;20201;-69
2022/07/10 05:34:00;;;;;;;;;;;14.70;99.90;;;;;;5030230;28;20199;-71
2022/07/10 05:36:29;;;;;;;;;;;14.80;99.90;;;;;;5028411;28;20233;-71
2022/07/10 05:38:57;;;;;;;;;;;14.80;99.90;;;;;;5033016;28;20194;-69
2022/07/10 05:41:25;;;;;;;;;;;14.90;99.90;;;;;;5035723;28;20664;-70
2022/07/10 05:43:53;;;;;;;;;;;15.00;99.90;;;;;;5027144;28;20202;-70
2022/07/10 05:46:20;;;;;;;;;;;15.00;99.90;;;;;;5028389;28;20244;-68
2022/07/10 05:48:48;;;;;;;;;;;15.00;99.90;;;;;;5023431;28;20207;-70
2022/07/10 05:51:16;;;;;;;;;;;15.00;99.90;;;;;;5019451;28;20219;-70
2022/07/10 05:54:05;;;;;;;;;;;15.00;99.90;;;;;;5027671;28;20289;-70
2022/07/10 05:56:33;;;;;;;;;;;15.10;99.90;;;;;;5024915;28;20210;-70
2022/07/10 05:59:01;;;;;;;;;;;15.20;99.90;;;;;;5025833;28;20671;-71
2022/07/10 06:01:29;;;;;;;;;;;15.10;99.90;;;;;;5026314;28;20206;-70
2022/07/10 06:03:57;;;;;;;;;;;15.30;99.90;;;;;;5025726;28;20250;-70
2022/07/10 06:06:25;;;;;;;;;;;15.30;99.90;;;;;;5027731;28;20253;-70
2022/07/10 06:08:53;;;;;;;;;;;15.40;99.90;;;;;;5030107;28;20620;-70
2022/07/10 06:11:22;;;;;;;;;;;15.50;99.90;;;;;;5027164;28;20210;-70
2022/07/10 06:13:50;;;;;;;;;;;15.60;99.90;;;;;;5027503;28;20209;-68
2022/07/10 06:16:18;;;;;;;;;;;15.70;99.90;;;;;;5030928;28;20599;-68
2022/07/10 06:18:45;;;;;;;;;;;15.70;99.90;;;;;;5025104;28;20277;-69
2022/07/10 06:21:13;;;;;;;;;;;15.70;99.90;;;;;;5025775;28;20217;-70
2022/07/10 06:23:41;;;;;;;;;;;15.70;99.90;;;;;;5029704;28;20194;-69
2022/07/10 06:26:09;;;;;;;;;;;15.80;99.90;;;;;;5029620;28;20749;-69
2022/07/10 06:28:39;;;;;;;;;;;15.90;99.90;;;;;;5029161;28;20203;-68
2022/07/10 06:31:07;;;;;;;;;;;15.70;99.90;;;;;;5033530;28;20577;-70
2022/07/10 06:33:36;;;;;;;;;;;15.80;99.90;;;;;;5031278;28;20302;-69
2022/07/10 06:36:04;;;;;;;;;;;15.60;99.90;;;;;;5028632;28;20207;-69
2022/07/10 06:38:32;;;;;;;;;;;15.60;99.90;;;;;;5029525;28;20195;-70
2022/07/10 06:41:00;;;;;;;;;;;15.70;99.90;;;;;;5029610;28;20309;-70
2022/07/10 06:43:28;;;;;;;;;;;15.60;99.90;;;;;;5026436;28;20244;-70
2022/07/10 06:45:57;;;;;;;;;;;15.70;99.90;;;;;;5028010;28;20195;-67
2022/07/10 06:48:25;;;;;;;;;;;15.90;99.90;;;;;;5023430;28;20559;-69
2022/07/10 06:50:52;;;;;;;;;;;16.20;99.90;;;;;;5027392;28;20264;-70
2022/07/10 06:53:23;;;;;;;;;;;16.40;99.90;;;;;;5026253;28;20199;-70
2022/07/10 06:55:51;;;;;;;;;;;16.50;99.90;;;;;;5022350;28;20207;-70
2022/07/10 06:58:19;;;;;;;;;;;16.70;99.90;;;;;;5008975;28;20213;-69
2022/07/10 07:00:47;;;;;;;;;;;16.90;99.90;;;;;;5011730;28;20268;-69
2022/07/10 07:03:16;;;;;;;;;;;17.00;99.90;;;;;;5009832;28;20215;-69
2022/07/10 07:05:44;;;;;;;;;;;17.00;99.90;;;;;;5011459;28;20235;-68
2022/07/10 07:08:13;;;;;;;;;;;17.00;99.90;;;;;;5011744;28;20195;-67
2022/07/10 07:10:41;;;;;;;;;;;17.10;99.90;;;;;;5014016;28;20272;-67
2022/07/10 07:13:09;;;;;;;;;;;17.30;99.90;;;;;;5013175;28;20218;-68
2022/07/10 07:15:41;;;;;;;;;;;17.40;99.90;;;;;;5003364;28;20195;-68
2022/07/10 07:18:12;;;;;;;;;;;17.70;99.90;;;;;;5011870;28;20293;-68
2022/07/10 07:23:27;;;;;;;;;;;17.90;99.90;;;;;;5012917;28;20624;-67
2022/07/10 07:25:55;;;;;;;;;;;17.80;99.90;;;;;;5011802;28;20272;-68
2022/07/10 07:28:23;;;;;;;;;;;17.70;99.90;;;;;;5010118;28;20226;-68
2022/07/10 07:30:51;;;;;;;;;;;17.60;99.90;;;;;;5012963;28;20230;-68
2022/07/10 07:33:19;;;;;;;;;;;17.50;99.90;;;;;;5011908;28;20211;-68
2022/07/10 07:35:48;;;;;;;;;;;17.50;99.90;;;;;;5011360;28;20202;-67
2022/07/10 07:38:17;;;;;;;;;;;17.60;99.90;;;;;;5011325;28;20790;-67
2022/07/10 07:40:45;;;;;;;;;;;17.70;99.90;;;;;;5016256;28;20207;-68
2022/07/10 07:43:13;;;;;;;;;;;17.80;99.90;;;;;;5017819;28;20210;-68
2022/07/10 07:45:40;;;;;;;;;;;17.90;99.90;;;;;;5016860;28;20759;-68
2022/07/10 07:48:08;;;;;;;;;;;18.00;99.90;;;;;;5013407;28;20199;-69
2022/07/10 07:50:37;;;;;;;;;;;18.10;99.90;;;;;;5015552;28;20202;-68
2022/07/10 07:53:06;;;;;;;;;;;18.00;99.90;;;;;;5015590;28;20214;-68
2022/07/10 07:55:34;;;;;;;;;;;17.70;99.90;;;;;;5015520;28;20218;-68
2022/07/10 07:58:03;;;;;;;;;;;17.80;99.90;;;;;;5014571;28;20231;-70
2022/07/10 08:00:32;;;;;;;;;;;17.80;99.90;;;;;;5017135;28;20241;-69
2022/07/10 08:03:00;;;;;;;;;;;17.40;99.90;;;;;;5012489;28;20207;-68
2022/07/10 08:05:29;;;;;;;;;;;17.30;99.90;;;;;;5010980;28;20312;-69
2022/07/10 08:07:58;;;;;;;;;;;17.50;99.90;;;;;;5014092;28;20290;-68
2022/07/10 08:10:28;;;;;;;;;;;17.70;99.90;;;;;;5014003;28;20911;-68
2022/07/10 08:12:55;;;;;;;;;;;18.00;99.90;;;;;;5016796;28;20198;-68
2022/07/10 08:15:23;;;;;;;;;;;18.20;99.90;;;;;;5016176;28;20203;-68
2022/07/10 08:17:52;;;;;;;;;;;18.30;99.90;;;;;;5013988;28;20672;-69
2022/07/10 08:20:20;;;;;;;;;;;18.40;99.90;;;;;;5016133;28;20210;-69
2022/07/10 08:22:49;;;;;;;;;;;18.30;99.90;;;;;;5017242;28;20218;-70
2022/07/10 08:25:24;;;;;;;;;;;18.30;99.90;;;;;;5016267;28;20751;-68
2022/07/10 08:27:53;;;;;;;;;;;18.10;99.90;;;;;;5012167;28;20226;-69
2022/07/10 08:30:21;;;;;;;;;;;18.20;99.90;;;;;;5017096;28;20199;-68
2022/07/10 08:32:49;;;;;;;;;;;18.20;99.90;;;;;;5013738;28;20273;-67
2022/07/10 08:35:16;;;;;;;;;;;18.20;99.90;;;;;;5012132;28;21240;-67
2022/07/10 08:37:45;;;;;;;;;;;18.00;99.90;;;;;;5013919;28;20214;-67
2022/07/10 08:40:13;;;;;;;;;;;17.90;99.90;;;;;;5014492;28;20225;-68
2022/07/10 08:42:44;;;;;;;;;;;17.70;99.90;;;;;;5025403;28;20615;-68
2022/07/10 08:45:13;;;;;;;;;;;17.70;99.90;;;;;;5030603;28;20256;-69
2022/07/10 08:47:44;;;;;;;;;;;18.00;99.90;;;;;;5031546;28;21457;-69
2022/07/10 08:50:17;;;;;;;;;;;18.50;99.90;;;;;;5034158;28;20332;-70
2022/07/10 08:52:50;;;;;;;;;;;19.00;99.90;;;;;;5033833;28;20209;-70
2022/07/10 08:55:19;;;;;;;;;;;19.10;99.90;;;;;;5034591;28;20206;-71
2022/07/10 08:57:47;;;;;;;;;;;19.20;99.90;;;;;;5032499;28;20207;-70
2022/07/10 09:00:16;;;;;;;;;;;19.00;99.90;;;;;;5033097;28;20199;-71
2022/07/10 09:02:44;;;;;;;;;;;18.70;99.90;;;;;;5032467;28;20260;-71
2022/07/10 09:05:12;;;;;;;;;;;18.70;99.90;;;;;;5032836;28;20198;-71
2022/07/10 09:07:41;;;;;;;;;;;18.50;99.90;;;;;;5032999;28;20203;-71
2022/07/10 09:10:10;;;;;;;;;;;18.60;99.90;;;;;;5032751;28;20570;-71
2022/07/10 09:12:50;;;;;;;;;;;18.50;99.90;;;;;;5031925;28;20203;-70
2022/07/10 09:15:21;;;;;;;;;;;18.80;99.90;;;;;;4993086;28;20735;-71
2022/07/10 09:17:54;;;;;;;;;;;19.00;99.90;;;;;;4993363;28;20203;-70
2022/07/10 09:20:29;;;;;;;;;;;19.00;99.90;;;;;;4986884;28;20560;-70
2022/07/10 09:22:57;;;;;;;;;;;19.00;99.90;;;;;;4987151;28;20203;-71
2022/07/10 09:25:30;;;;;;;;;;;18.80;99.90;;;;;;4993074;28;20262;-71
2022/07/10 09:27:59;;;;;;;;;;;18.80;99.90;;;;;;4993063;28;20238;-71
2022/07/10 09:30:36;;;;;;;;;;;18.80;99.90;;;;;;4992957;28;20214;-71
2022/07/10 09:33:18;;;;;;;;;;;18.90;99.90;;;;;;4992208;28;20250;-70
2022/07/10 09:36:08;;;;;;;;;;;18.80;99.90;;;;;;4993331;28;20246;-70
2022/07/10 09:38:49;;;;;;;;;;;18.70;99.90;;;;;;4993392;28;20525;-69
2022/07/10 09:41:21;;;;;;;;;;;18.60;99.90;;;;;;4992897;28;20207;-71
2022/07/10 09:43:49;;;;;;;;;;;19.00;99.90;;;;;;4992023;28;20677;-70
2022/07/10 09:46:19;;;;;;;;;;;19.50;99.90;;;;;;4992720;28;20554;-71
2022/07/10 09:48:46;;;;;;;;;;;20.30;99.90;;;;;;4992860;28;20199;-70
2022/07/10 09:51:14;;;;;;;;;;;20.70;98.50;;;;;;4992689;28;20203;-71
2022/07/10 09:53:43;;;;;;;;;;;20.90;98.60;;;;;;4991993;28;20750;-70
2022/07/10 09:56:11;;;;;;;;;;;21.20;98.60;;;;;;4992041;28;20232;-71
2022/07/10 09:58:40;;;;;;;;;;;21.20;98.90;;;;;;4992395;28;20211;-71
2022/07/10 10:01:09;;;;;;;;;;;21.30;98.00;;;;;;4992407;28;20242;-70
2022/07/10 10:03:39;;;;;;;;;;;21.20;97.80;;;;;;4991246;28;20310;-71
2022/07/10 10:06:11;;;;;;;;;;;21.00;98.80;;;;;;4992744;28;20258;-70
2022/07/10 10:08:45;;;;;;;;;;;20.80;98.80;;;;;;4991057;28;20246;-70
2022/07/10 10:11:15;;;;;;;;;;;20.70;99.20;;;;;;4992543;28;20211;-71
2022/07/10 10:13:43;;;;;;;;;;;20.10;99.50;;;;;;5007709;28;20676;-70
2022/07/10 10:16:11;;;;;;;;;;;19.80;99.30;;;;;;5031306;28;20202;-70
2022/07/10 10:20:36;;;;;;;;;;;19.40;99.90;;;;;;5031608;28;20210;-70
2022/07/10 10:21:28;;;;;;;;;;;19.30;99.90;;;;;;5031471;28;20203;-70
2022/07/10 10:23:56;;;;;;;;;;;19.40;99.90;;;;;;5030769;28;20209;-70
2022/07/10 10:26:24;;;;;;;;;;;19.50;99.90;;;;;;5013541;28;20248;-71
2022/07/10 10:28:53;;;;;;;;;;;19.70;99.90;;;;;;5031155;28;20205;-71
2022/07/10 10:31:21;;;;;;;;;;;19.80;99.90;;;;;;5031093;28;20618;-70
2022/07/10 10:33:55;;;;;;;;;;;20.00;99.80;;;;;;5027376;28;20203;-70
2022/07/10 10:36:44;;;;;;;;;;;20.40;99.90;;;;;;5027351;28;20202;-70
2022/07/10 10:39:13;;;;;;;;;;;20.50;98.70;;;;;;5025659;28;20203;-70
2022/07/10 10:41:42;;;;;;;;;;;20.80;99.80;;;;;;5030610;28;20253;-71
2022/07/10 10:44:36;;;;;;;;;;;21.10;97.70;;;;;;5028847;28;20704;-70
2022/07/10 10:47:07;;;;;;;;;;;21.70;97.50;;;;;;5008952;28;20195;-70
2022/07/10 10:49:50;;;;;;;;;;;22.30;97.00;;;;;;5030849;28;20240;-70
2022/07/10 10:52:18;;;;;;;;;;;22.20;96.90;;;;;;5030782;28;20244;-68
2022/07/10 10:55:07;;;;;;;;;;;22.10;97.10;;;;;;5030808;28;20257;-70
2022/07/10 10:57:39;;;;;;;;;;;22.10;96.40;;;;;;5031250;28;20198;-70
2022/07/10 11:00:08;;;;;;;;;;;21.70;96.60;;;;;;5030933;28;20198;-71
2022/07/10 11:02:37;;;;;;;;;;;21.60;97.20;;;;;;5030361;28;20254;-70
2022/07/10 11:05:25;;;;;;;;;;;21.50;97.00;;;;;;5030555;28;20625;-70
2022/07/10 11:07:54;;;;;;;;;;;21.80;96.60;;;;;;5031315;28;20588;-71
2022/07/10 11:10:28;;;;;;;;;;;22.40;96.30;;;;;;5030624;28;20237;-71
2022/07/10 11:13:00;;;;;;;;;;;22.60;96.00;;;;;;5030129;28;20303;-70
2022/07/10 11:15:29;;;;;;;;;;;22.50;95.60;;;;;;5034638;28;20260;-71
2022/07/10 11:17:58;;;;;;;;;;;22.40;96.30;;;;;;5034994;28;20191;-71
2022/07/10 11:20:25;;;;;;;;;;;22.50;96.20;;;;;;5034892;28;20203;-70
2022/07/10 11:23:01;;;;;;;;;;;22.80;95.80;;;;;;5027804;28;20660;-71
2022/07/10 11:25:41;;;;;;;;;;;22.80;95.40;;;;;;5029230;28;20249;-69
2022/07/10 11:28:09;;;;;;;;;;;22.70;95.60;;;;;;5034746;28;20198;-70
2022/07/10 11:30:44;;;;;;;;;;;22.50;96.00;;;;;;5034786;28;20301;-71
2022/07/10 11:33:12;;;;;;;;;;;22.50;97.60;;;;;;5033785;28;20252;-71
2022/07/10 11:35:40;;;;;;;;;;;22.60;96.40;;;;;;5034510;28;20248;-71
2022/07/10 11:38:09;;;;;;;;;;;23.20;96.00;;;;;;5034411;28;20307;-71
2022/07/10 11:40:37;;;;;;;;;;;23.40;95.00;;;;;;5035402;28;20203;-72
2022/07/10 11:43:06;;;;;;;;;;;23.70;94.90;;;;;;5033694;28;20198;-72
2022/07/10 11:45:36;;;;;;;;;;;24.00;94.40;;;;;;5034176;28;20214;-71
2022/07/10 11:48:04;;;;;;;;;;;24.40;94.00;;;;;;5031628;28;20203;-70
2022/07/10 11:50:36;;;;;;;;;;;24.90;93.00;;;;;;5034247;28;20199;-73
2022/07/10 11:53:04;;;;;;;;;;;24.80;92.50;;;;;;5033267;28;20195;-72
2022/07/10 11:55:36;;;;;;;;;;;24.40;92.00;;;;;;5034009;28;20599;-72
2022/07/10 11:58:13;;;;;;;;;;;24.60;92.50;;;;;;5034333;28;20638;-71
2022/07/10 12:00:41;;;;;;;;;;;24.60;91.40;;;;;;5034587;28;20202;-73
2022/07/10 12:03:17;;;;;;;;;;;24.50;92.10;;;;;;5033107;28;20636;-71
2022/07/10 12:05:45;;;;;;;;;;;24.20;91.80;;;;;;5027511;28;20199;-73
2022/07/10 12:08:14;;;;;;;;;;;24.00;91.90;;;;;;5034025;28;20260;-72
2022/07/10 12:10:43;;;;;;;;;;;23.70;92.00;;;;;;5033944;28;20225;-71
2022/07/10 12:13:12;;;;;;;;;;;23.60;92.50;;;;;;5033075;28;20207;-71
2022/07/10 12:15:40;;;;;;;;;;;24.00;92.10;;;;;;5032845;28;20199;-73
2022/07/10 12:18:09;;;;;;;;;;;24.00;92.20;;;;;;5033623;28;20195;-70
2022/07/10 12:20:38;;;;;;;;;;;23.90;92.40;;;;;;5033401;28;20289;-73
2022/07/10 12:23:06;;;;;;;;;;;23.80;92.20;;;;;;5032834;28;20215;-72
2022/07/10 12:25:34;;;;;;;;;;;23.40;92.50;;;;;;5032504;28;20209;-72
2022/07/10 12:28:03;;;;;;;;;;;23.70;92.90;;;;;;5033026;28;20218;-71
2022/07/10 12:30:38;;;;;;;;;;;24.10;92.70;;;;;;5033431;28;20814;-71
2022/07/10 12:33:07;;;;;;;;;;;24.10;92.10;;;;;;5032766;28;20229;-71
2022/07/10 12:35:45;;;;;;;;;;;23.90;92.30;;;;;;5033323;28;20202;-71
2022/07/10 12:38:15;;;;;;;;;;;24.00;92.70;;;;;;5033211;28;20265;-73
2022/07/10 12:40:43;;;;;;;;;;;23.80;92.20;;;;;;5032857;28;20198;-71
2022/07/10 12:43:12;;;;;;;;;;;23.80;92.30;;;;;;5032739;28;20624;-73
2022/07/10 12:45:40;;;;;;;;;;;24.00;92.60;;;;;;5032833;28;20190;-72
2022/07/10 12:48:08;;;;;;;;;;;24.40;92.50;;;;;;5032555;28;20202;-72
2022/07/10 12:50:36;;;;;;;;;;;24.50;92.10;;;;;;5030612;28;20210;-72
2022/07/10 12:53:14;;;;;;;;;;;25.00;91.70;;;;;;5032477;28;20256;-72
2022/07/10 12:55:42;;;;;;;;;;;25.00;91.70;;;;;;5033166;28;20211;-71
2022/07/10 12:58:11;;;;;;;;;;;24.70;91.60;;;;;;5032986;28;20791;-73
2022/07/10 13:00:47;;;;;;;;;;;24.20;92.30;;;;;;5032663;28;20199;-71
2022/07/10 13:03:18;;;;;;;;;;;24.00;92.50;;;;;;5026026;28;20664;-71
2022/07/10 13:05:46;;;;;;;;;;;23.80;92.80;;;;;;5032103;28;20203;-74
2022/07/10 13:08:16;;;;;;;;;;;24.20;92.80;;;;;;5033246;28;20195;-72
2022/07/10 13:10:45;;;;;;;;;;;24.50;91.90;;;;;;5026923;28;20690;-71
2022/07/10 13:13:13;;;;;;;;;;;25.10;92.90;;;;;;5031955;28;20206;-72
2022/07/10 13:15:45;;;;;;;;;;;25.60;91.70;;;;;;5032676;28;20257;-73
2022/07/10 13:18:17;;;;;;;;;;;25.70;90.60;;;;;;5032725;28;20210;-73
2022/07/10 13:20:45;;;;;;;;;;;25.80;90.50;;;;;;5032639;28;20202;-72
2022/07/10 13:23:13;;;;;;;;;;;26.00;91.30;;;;;;5031899;28;20722;-73
2022/07/10 13:25:42;;;;;;;;;;;25.80;90.50;;;;;;5032383;28;20203;-72
2022/07/10 13:28:11;;;;;;;;;;;26.00;90.20;;;;;;5032579;28;20680;-73
2022/07/10 13:30:39;;;;;;;;;;;25.70;90.20;;;;;;5032481;28;20261;-72
2022/07/10 13:33:07;;;;;;;;;;;24.90;92.20;;;;;;5031798;28;20202;-72
2022/07/10 13:35:36;;;;;;;;;;;24.40;91.50;;;;;;5032494;28;20253;-72
2022/07/10 13:38:04;;;;;;;;;;;24.00;91.80;;;;;;5031462;28;20660;-73
2022/07/10 13:40:34;;;;;;;;;;;23.80;92.10;;;;;;5031751;28;20202;-73
2022/07/10 13:43:02;;;;;;;;;;;23.70;92.70;;;;;;5031791;28;20232;-72
2022/07/10 13:45:33;;;;;;;;;;;23.30;92.60;;;;;;5032248;28;20253;-71
2022/07/10 13:48:01;;;;;;;;;;;23.30;93.00;;;;;;5031914;28;20199;-73
2022/07/10 13:50:29;;;;;;;;;;;23.20;93.10;;;;;;5028299;28;20206;-71
2022/07/10 13:52:58;;;;;;;;;;;23.30;93.10;;;;;;5031391;28;20195;-71
2022/07/10 13:55:25;;;;;;;;;;;23.30;92.90;;;;;;5032019;28;20611;-73
2022/07/10 13:57:54;;;;;;;;;;;23.00;93.20;;;;;;5034076;28;20203;-71
2022/07/10 14:00:21;;;;;;;;;;;22.80;93.80;;;;;;5031871;28;20664;-72
2022/07/10 14:02:49;;;;;;;;;;;22.80;93.70;;;;;;5031107;28;20585;-72
2022/07/10 14:05:17;;;;;;;;;;;23.00;94.00;;;;;;5031537;28;20206;-72
2022/07/10 14:07:44;;;;;;;;;;;23.10;94.80;;;;;;5031410;28;20722;-72
2022/07/10 14:10:14;;;;;;;;;;;23.00;93.70;;;;;;5031614;28;20207;-71
2022/07/10 14:12:42;;;;;;;;;;;22.70;94.30;;;;;;5030795;28;20666;-73
2022/07/10 14:15:10;;;;;;;;;;;22.60;94.40;;;;;;5031498;28;20608;-72
2022/07/10 14:17:38;;;;;;;;;;;22.30;94.80;;;;;;5031620;28;20249;-70
2022/07/10 14:20:06;;;;;;;;;;;22.20;95.60;;;;;;5031323;28;20203;-71
2022/07/10 14:22:34;;;;;;;;;;;22.20;95.80;;;;;;5031121;28;20261;-71
2022/07/10 14:25:03;;;;;;;;;;;22.20;96.90;;;;;;5031347;28;20202;-71
2022/07/10 14:27:32;;;;;;;;;;;22.20;96.00;;;;;;5031423;28;20253;-73
2022/07/10 14:30:00;;;;;;;;;;;22.10;96.20;;;;;;5031398;28;20251;-72
2022/07/10 14:32:28;;;;;;;;;;;22.00;96.30;;;;;;5030954;28;20210;-72
2022/07/10 14:34:55;;;;;;;;;;;21.80;96.70;;;;;;5031362;28;20207;-72
2022/07/10 14:37:23;;;;;;;;;;;21.80;96.80;;;;;;5031319;28;20203;-71